Quail, Texas
Current Conditions -  °F | °C
As of 5:53 PM on Monday 20 Oct 2014 (Local Time) from KCDS Reporting Station
Clear Clear  
Wind Chill: 83°   Ceiling: Unl
Heat Index: 83°   Visibility: 10mi
Dew Point: 53°   Wind: 7mph
Humidity: 36%   Direction: 150°SSE
Pressure: 30.01"   Gusts: NA
Location:  34.91°N, 100.4°W
Report Text: KCDS 202253Z AUTO 15006KT 10SM CLR 28/12 A3001 RMK AO2 SLP140 T02830117
Loading
Personal Weather Stations






























Interactive Weather Map
Tropical Storm Tracking
New forecast layout! Learn more

10-Day Weather Forecast

Advertisements
Track Severe Weather on mobile